sensor_id;sensor_type;location;lat;lon;timestamp;P1;durP1;ratioP1;P2;durP2;ratioP2
5999;SDS011;3028;49.468;7.694;2023-06-10T00:00:01;7.47;;;6.97;;
5999;SDS011;3028;49.468;7.694;2023-06-10T00:02:03;6.63;;;6.22;;
5999;SDS011;3028;49.468;7.694;2023-06-10T00:04:05;6.60;;;6.20;;
5999;SDS011;3028;49.468;7.694;2023-06-10T00:06:07;6.60;;;5.75;;
5999;SDS011;3028;49.468;7.694;2023-06-10T00:08:08;6.80;;;6.30;;
5999;SDS011;3028;49.468;7.694;2023-06-10T00:10:12;6.55;;;6.03;;
5999;SDS011;3028;49.468;7.694;2023-06-10T00:12:14;6.32;;;5.75;;
5999;SDS011;3028;49.468;7.694;2023-06-10T00:14:16;8.10;;;6.38;;
5999;SDS011;3028;49.468;7.694;2023-06-10T00:16:17;7.13;;;5.72;;
5999;SDS011;3028;49.468;7.694;2023-06-10T00:18:20;6.28;;;5.72;;
5999;SDS011;3028;49.468;7.694;2023-06-10T00:20:23;6.07;;;5.68;;
5999;SDS011;3028;49.468;7.694;2023-06-10T00:22:26;6.30;;;5.90;;
5999;SDS011;3028;49.468;7.694;2023-06-10T00:24:30;7.03;;;6.53;;
5999;SDS011;3028;49.468;7.694;2023-06-10T00:26:32;5.70;;;5.32;;
5999;SDS011;3028;49.468;7.694;2023-06-10T00:28:34;6.72;;;6.22;;
5999;SDS011;3028;49.468;7.694;2023-06-10T00:30:36;7.35;;;6.85;;
5999;SDS011;3028;49.468;7.694;2023-06-10T00:32:38;7.97;;;6.00;;
5999;SDS011;3028;49.468;7.694;2023-06-10T00:34:40;6.63;;;6.03;;
5999;SDS011;3028;49.468;7.694;2023-06-10T00:36:42;6.65;;;6.15;;
5999;SDS011;3028;49.468;7.694;2023-06-10T00:38:44;7.55;;;6.95;;
5999;SDS011;3028;49.468;7.694;2023-06-10T00:40:46;12.23;;;6.72;;
5999;SDS011;3028;49.468;7.694;2023-06-10T00:42:48;6.55;;;6.05;;
5999;SDS011;3028;49.468;7.694;2023-06-10T00:44:53;7.30;;;6.80;;
5999;SDS011;3028;49.468;7.694;2023-06-10T00:46:55;6.85;;;6.40;;
5999;SDS011;3028;49.468;7.694;2023-06-10T00:48:57;7.20;;;6.70;;
5999;SDS011;3028;49.468;7.694;2023-06-10T00:50:59;7.78;;;7.15;;
5999;SDS011;3028;49.468;7.694;2023-06-10T00:53:01;7.30;;;6.70;;
5999;SDS011;3028;49.468;7.694;2023-06-10T00:55:03;6.97;;;6.47;;
5999;SDS011;3028;49.468;7.694;2023-06-10T00:57:05;7.07;;;6.57;;
5999;SDS011;3028;49.468;7.694;2023-06-10T00:59:07;6.95;;;6.30;;
5999;SDS011;3028;49.468;7.694;2023-06-10T01:01:09;6.55;;;6.15;;
5999;SDS011;3028;49.468;7.694;2023-06-10T01:03:12;9.30;;;6.63;;
5999;SDS011;3028;49.468;7.694;2023-06-10T01:05:14;7.43;;;6.85;;
5999;SDS011;3028;49.468;7.694;2023-06-10T01:07:25;7.32;;;6.72;;
5999;SDS011;3028;49.468;7.694;2023-06-10T01:09:41;6.53;;;6.10;;
5999;SDS011;3028;49.468;7.694;2023-06-10T01:11:49;6.70;;;6.10;;
5999;SDS011;3028;49.468;7.694;2023-06-10T01:13:56;7.88;;;7.28;;
5999;SDS011;3028;49.468;7.694;2023-06-10T01:15:59;6.63;;;6.15;;
5999;SDS011;3028;49.468;7.694;2023-06-10T01:18:02;6.57;;;6.07;;
5999;SDS011;3028;49.468;7.694;2023-06-10T01:20:11;7.65;;;7.15;;
5999;SDS011;3028;49.468;7.694;2023-06-10T01:22:13;6.70;;;6.07;;
5999;SDS011;3028;49.468;7.694;2023-06-10T01:24:17;8.90;;;6.78;;
5999;SDS011;3028;49.468;7.694;2023-06-10T01:26:20;8.02;;;7.30;;
5999;SDS011;3028;49.468;7.694;2023-06-10T01:30:41;6.28;;;5.88;;
5999;SDS011;3028;49.468;7.694;2023-06-10T01:32:50;7.18;;;6.68;;
5999;SDS011;3028;49.468;7.694;2023-06-10T01:34:52;8.13;;;7.50;;
5999;SDS011;3028;49.468;7.694;2023-06-10T01:36:54;7.68;;;6.53;;
5999;SDS011;3028;49.468;7.694;2023-06-10T01:38:58;7.82;;;7.13;;
5999;SDS011;3028;49.468;7.694;2023-06-10T01:41:01;7.38;;;6.78;;
5999;SDS011;3028;49.468;7.694;2023-06-10T01:43:03;7.32;;;6.78;;
5999;SDS011;3028;49.468;7.694;2023-06-10T01:45:05;7.32;;;6.82;;
5999;SDS011;3028;49.468;7.694;2023-06-10T01:47:08;6.10;;;5.70;;
5999;SDS011;3028;49.468;7.694;2023-06-10T01:49:10;7.53;;;6.93;;
5999;SDS011;3028;49.468;7.694;2023-06-10T01:51:12;7.80;;;7.20;;
5999;SDS011;3028;49.468;7.694;2023-06-10T01:53:14;7.60;;;7.00;;
5999;SDS011;3028;49.468;7.694;2023-06-10T01:55:15;7.38;;;6.88;;
5999;SDS011;3028;49.468;7.694;2023-06-10T01:57:18;7.05;;;6.55;;
5999;SDS011;3028;49.468;7.694;2023-06-10T01:59:19;7.40;;;6.70;;
5999;SDS011;3028;49.468;7.694;2023-06-10T02:01:21;6.90;;;6.40;;
5999;SDS011;3028;49.468;7.694;2023-06-10T02:03:23;7.13;;;6.63;;
5999;SDS011;3028;49.468;7.694;2023-06-10T02:05:25;7.28;;;6.75;;
5999;SDS011;3028;49.468;7.694;2023-06-10T02:07:26;7.75;;;7.25;;
5999;SDS011;3028;49.468;7.694;2023-06-10T02:09:28;8.00;;;7.38;;
5999;SDS011;3028;49.468;7.694;2023-06-10T02:11:30;8.43;;;7.72;;
5999;SDS011;3028;49.468;7.694;2023-06-10T02:13:31;7.65;;;7.13;;
5999;SDS011;3028;49.468;7.694;2023-06-10T02:15:33;6.72;;;6.22;;
5999;SDS011;3028;49.468;7.694;2023-06-10T02:17:37;6.63;;;6.15;;
5999;SDS011;3028;49.468;7.694;2023-06-10T02:19:40;8.07;;;7.13;;
5999;SDS011;3028;49.468;7.694;2023-06-10T02:21:44;7.05;;;6.55;;
5999;SDS011;3028;49.468;7.694;2023-06-10T02:23:46;7.47;;;7.07;;
5999;SDS011;3028;49.468;7.694;2023-06-10T02:25:47;11.00;;;7.50;;
5999;SDS011;3028;49.468;7.694;2023-06-10T02:27:49;6.53;;;6.07;;
5999;SDS011;3028;49.468;7.694;2023-06-10T02:29:51;6.53;;;6.03;;
5999;SDS011;3028;49.468;7.694;2023-06-10T02:31:52;6.72;;;6.22;;
5999;SDS011;3028;49.468;7.694;2023-06-10T02:33:54;7.53;;;6.90;;
5999;SDS011;3028;49.468;7.694;2023-06-10T02:35:57;8.80;;;6.80;;
5999;SDS011;3028;49.468;7.694;2023-06-10T02:37:59;8.02;;;7.43;;
5999;SDS011;3028;49.468;7.694;2023-06-10T02:40:00;7.43;;;6.75;;
5999;SDS011;3028;49.468;7.694;2023-06-10T02:42:02;7.05;;;6.38;;
5999;SDS011;3028;49.468;7.694;2023-06-10T02:44:04;7.28;;;6.78;;
5999;SDS011;3028;49.468;7.694;2023-06-10T02:46:06;7.22;;;6.72;;
5999;SDS011;3028;49.468;7.694;2023-06-10T02:48:08;6.90;;;6.40;;
5999;SDS011;3028;49.468;7.694;2023-06-10T02:50:09;6.75;;;6.25;;
5999;SDS011;3028;49.468;7.694;2023-06-10T02:52:11;6.63;;;6.13;;
5999;SDS011;3028;49.468;7.694;2023-06-10T02:54:13;6.97;;;6.47;;
5999;SDS011;3028;49.468;7.694;2023-06-10T02:56:18;8.07;;;7.38;;
5999;SDS011;3028;49.468;7.694;2023-06-10T02:58:20;8.15;;;7.65;;
5999;SDS011;3028;49.468;7.694;2023-06-10T03:00:22;18.67;;;6.50;;
5999;SDS011;3028;49.468;7.694;2023-06-10T03:02:24;7.90;;;7.30;;
5999;SDS011;3028;49.468;7.694;2023-06-10T03:04:30;7.00;;;6.43;;
5999;SDS011;3028;49.468;7.694;2023-06-10T03:06:32;7.25;;;6.57;;
5999;SDS011;3028;49.468;7.694;2023-06-10T03:08:37;7.22;;;6.60;;
5999;SDS011;3028;49.468;7.694;2023-06-10T03:10:39;7.10;;;6.60;;
5999;SDS011;3028;49.468;7.694;2023-06-10T03:12:40;8.73;;;7.50;;
5999;SDS011;3028;49.468;7.694;2023-06-10T03:14:42;6.90;;;6.40;;
5999;SDS011;3028;49.468;7.694;2023-06-10T03:16:44;6.28;;;5.88;;
5999;SDS011;3028;49.468;7.694;2023-06-10T03:18:46;6.75;;;6.15;;
5999;SDS011;3028;49.468;7.694;2023-06-10T03:20:48;7.15;;;6.65;;
5999;SDS011;3028;49.468;7.694;2023-06-10T03:22:50;6.60;;;6.15;;
5999;SDS011;3028;49.468;7.694;2023-06-10T03:24:52;6.47;;;6.07;;
5999;SDS011;3028;49.468;7.694;2023-06-10T03:26:54;6.80;;;6.40;;
5999;SDS011;3028;49.468;7.694;2023-06-10T03:28:56;6.68;;;6.18;;
5999;SDS011;3028;49.468;7.694;2023-06-10T03:30:58;7.15;;;6.65;;
5999;SDS011;3028;49.468;7.694;2023-06-10T03:33:00;6.65;;;6.25;;
5999;SDS011;3028;49.468;7.694;2023-06-10T03:35:01;7.20;;;6.70;;
5999;SDS011;3028;49.468;7.694;2023-06-10T03:37:03;6.18;;;5.78;;
5999;SDS011;3028;49.468;7.694;2023-06-10T03:39:06;6.07;;;5.68;;
5999;SDS011;3028;49.468;7.694;2023-06-10T03:41:08;7.05;;;6.47;;
5999;SDS011;3028;49.468;7.694;2023-06-10T03:43:09;7.10;;;6.53;;
5999;SDS011;3028;49.468;7.694;2023-06-10T03:45:11;7.47;;;6.45;;
5999;SDS011;3028;49.468;7.694;2023-06-10T03:47:13;6.45;;;6.03;;
5999;SDS011;3028;49.468;7.694;2023-06-10T03:49:15;6.95;;;6.35;;
5999;SDS011;3028;49.468;7.694;2023-06-10T03:51:18;6.90;;;6.43;;
5999;SDS011;3028;49.468;7.694;2023-06-10T03:53:20;6.90;;;6.40;;
5999;SDS011;3028;49.468;7.694;2023-06-10T03:55:22;6.80;;;6.20;;
5999;SDS011;3028;49.468;7.694;2023-06-10T03:57:24;7.10;;;6.45;;
5999;SDS011;3028;49.468;7.694;2023-06-10T03:59:27;6.30;;;5.80;;
5999;SDS011;3028;49.468;7.694;2023-06-10T04:01:30;6.72;;;6.13;;
5999;SDS011;3028;49.468;7.694;2023-06-10T04:03:32;7.13;;;6.45;;
5999;SDS011;3028;49.468;7.694;2023-06-10T04:05:34;6.75;;;6.35;;
5999;SDS011;3028;49.468;7.694;2023-06-10T04:07:36;7.13;;;6.53;;
5999;SDS011;3028;49.468;7.694;2023-06-10T04:09:38;6.80;;;6.30;;
5999;SDS011;3028;49.468;7.694;2023-06-10T04:11:40;7.47;;;6.63;;
5999;SDS011;3028;49.468;7.694;2023-06-10T04:13:42;6.97;;;6.47;;
5999;SDS011;3028;49.468;7.694;2023-06-10T04:15:43;6.95;;;6.35;;
5999;SDS011;3028;49.468;7.694;2023-06-10T04:17:45;6.90;;;6.40;;
5999;SDS011;3028;49.468;7.694;2023-06-10T04:19:47;7.10;;;6.60;;
5999;SDS011;3028;49.468;7.694;2023-06-10T04:21:49;7.43;;;6.97;;
5999;SDS011;3028;49.468;7.694;2023-06-10T04:23:51;8.32;;;7.57;;
5999;SDS011;3028;49.468;7.694;2023-06-10T04:25:53;7.90;;;7.25;;
5999;SDS011;3028;49.468;7.694;2023-06-10T04:27:54;9.32;;;7.18;;
5999;SDS011;3028;49.468;7.694;2023-06-10T04:29:56;7.00;;;6.32;;
5999;SDS011;3028;49.468;7.694;2023-06-10T04:31:58;6.85;;;6.35;;
5999;SDS011;3028;49.468;7.694;2023-06-10T04:33:59;6.88;;;6.38;;
5999;SDS011;3028;49.468;7.694;2023-06-10T04:36:02;6.03;;;5.63;;
5999;SDS011;3028;49.468;7.694;2023-06-10T04:38:04;8.18;;;7.50;;
5999;SDS011;3028;49.468;7.694;2023-06-10T04:40:06;8.05;;;7.47;;
5999;SDS011;3028;49.468;7.694;2023-06-10T04:42:08;6.55;;;6.00;;
5999;SDS011;3028;49.468;7.694;2023-06-10T04:44:10;5.90;;;5.55;;
5999;SDS011;3028;49.468;7.694;2023-06-10T04:46:12;6.40;;;5.90;;
5999;SDS011;3028;49.468;7.694;2023-06-10T04:48:15;7.00;;;6.40;;
5999;SDS011;3028;49.468;7.694;2023-06-10T04:50:16;8.02;;;7.10;;
5999;SDS011;3028;49.468;7.694;2023-06-10T04:52:18;10.07;;;7.00;;
5999;SDS011;3028;49.468;7.694;2023-06-10T04:54:20;6.65;;;6.15;;
5999;SDS011;3028;49.468;7.694;2023-06-10T04:56:22;7.30;;;6.70;;
5999;SDS011;3028;49.468;7.694;2023-06-10T04:58:24;6.85;;;5.97;;
5999;SDS011;3028;49.468;7.694;2023-06-10T05:00:25;6.57;;;5.80;;
5999;SDS011;3028;49.468;7.694;2023-06-10T05:02:27;7.18;;;6.57;;
5999;SDS011;3028;49.468;7.694;2023-06-10T05:04:29;6.78;;;6.00;;
5999;SDS011;3028;49.468;7.694;2023-06-10T05:06:31;7.07;;;6.57;;
5999;SDS011;3028;49.468;7.694;2023-06-10T05:08:33;6.93;;;6.47;;
5999;SDS011;3028;49.468;7.694;2023-06-10T05:10:34;6.45;;;6.03;;
5999;SDS011;3028;49.468;7.694;2023-06-10T05:12:36;7.45;;;6.57;;
5999;SDS011;3028;49.468;7.694;2023-06-10T05:14:39;7.13;;;6.60;;
5999;SDS011;3028;49.468;7.694;2023-06-10T05:16:41;6.65;;;6.15;;
5999;SDS011;3028;49.468;7.694;2023-06-10T05:18:43;6.93;;;6.40;;
5999;SDS011;3028;49.468;7.694;2023-06-10T05:20:44;7.28;;;6.78;;
5999;SDS011;3028;49.468;7.694;2023-06-10T05:22:46;6.72;;;6.22;;
5999;SDS011;3028;49.468;7.694;2023-06-10T05:24:48;7.53;;;7.03;;
5999;SDS011;3028;49.468;7.694;2023-06-10T05:26:50;7.30;;;6.65;;
5999;SDS011;3028;49.468;7.694;2023-06-10T05:28:51;7.28;;;6.63;;
5999;SDS011;3028;49.468;7.694;2023-06-10T05:30:53;7.35;;;6.68;;
5999;SDS011;3028;49.468;7.694;2023-06-10T05:32:55;7.43;;;6.72;;
5999;SDS011;3028;49.468;7.694;2023-06-10T05:34:57;6.30;;;5.70;;
5999;SDS011;3028;49.468;7.694;2023-06-10T05:37:01;6.65;;;6.13;;
5999;SDS011;3028;49.468;7.694;2023-06-10T05:39:03;7.10;;;6.57;;
5999;SDS011;3028;49.468;7.694;2023-06-10T05:41:04;6.47;;;5.88;;
5999;SDS011;3028;49.468;7.694;2023-06-10T05:43:06;6.50;;;5.93;;
5999;SDS011;3028;49.468;7.694;2023-06-10T05:45:08;7.75;;;6.38;;
5999;SDS011;3028;49.468;7.694;2023-06-10T05:47:11;10.05;;;6.45;;
5999;SDS011;3028;49.468;7.694;2023-06-10T05:49:12;6.45;;;5.95;;
5999;SDS011;3028;49.468;7.694;2023-06-10T05:51:14;7.13;;;6.63;;
5999;SDS011;3028;49.468;7.694;2023-06-10T05:53:16;5.43;;;5.03;;
5999;SDS011;3028;49.468;7.694;2023-06-10T05:55:17;6.13;;;5.40;;
5999;SDS011;3028;49.468;7.694;2023-06-10T05:57:19;7.28;;;6.68;;
5999;SDS011;3028;49.468;7.694;2023-06-10T05:59:21;6.97;;;6.13;;
5999;SDS011;3028;49.468;7.694;2023-06-10T06:01:24;6.63;;;6.13;;
5999;SDS011;3028;49.468;7.694;2023-06-10T06:03:25;6.28;;;5.88;;
5999;SDS011;3028;49.468;7.694;2023-06-10T06:05:29;8.95;;;5.32;;
5999;SDS011;3028;49.468;7.694;2023-06-10T06:07:36;6.50;;;5.97;;
5999;SDS011;3028;49.468;7.694;2023-06-10T06:09:37;6.75;;;6.15;;
5999;SDS011;3028;49.468;7.694;2023-06-10T06:11:40;6.88;;;5.60;;
5999;SDS011;3028;49.468;7.694;2023-06-10T06:13:42;5.10;;;4.78;;
5999;SDS011;3028;49.468;7.694;2023-06-10T06:15:44;6.05;;;5.65;;
5999;SDS011;3028;49.468;7.694;2023-06-10T06:17:49;7.78;;;5.82;;
5999;SDS011;3028;49.468;7.694;2023-06-10T06:19:54;9.55;;;5.28;;
5999;SDS011;3028;49.468;7.694;2023-06-10T06:21:55;5.40;;;4.97;;
5999;SDS011;3028;49.468;7.694;2023-06-10T06:23:57;5.47;;;5.07;;
5999;SDS011;3028;49.468;7.694;2023-06-10T06:25:59;8.93;;;5.55;;
5999;SDS011;3028;49.468;7.694;2023-06-10T06:28:01;6.53;;;4.68;;
5999;SDS011;3028;49.468;7.694;2023-06-10T06:30:03;5.75;;;5.22;;
5999;SDS011;3028;49.468;7.694;2023-06-10T06:32:06;5.07;;;4.78;;
5999;SDS011;3028;49.468;7.694;2023-06-10T06:34:08;5.95;;;5.53;;
5999;SDS011;3028;49.468;7.694;2023-06-10T06:36:10;5.97;;;5.47;;
5999;SDS011;3028;49.468;7.694;2023-06-10T06:38:12;5.65;;;5.18;;
5999;SDS011;3028;49.468;7.694;2023-06-10T06:40:13;7.45;;;6.85;;
5999;SDS011;3028;49.468;7.694;2023-06-10T06:42:21;6.47;;;6.03;;
5999;SDS011;3028;49.468;7.694;2023-06-10T06:44:23;5.53;;;5.07;;
5999;SDS011;3028;49.468;7.694;2023-06-10T06:46:24;6.15;;;5.65;;
5999;SDS011;3028;49.468;7.694;2023-06-10T06:48:26;15.77;;;5.10;;
5999;SDS011;3028;49.468;7.694;2023-06-10T06:50:28;5.82;;;5.28;;
5999;SDS011;3028;49.468;7.694;2023-06-10T06:52:30;5.97;;;5.57;;
5999;SDS011;3028;49.468;7.694;2023-06-10T06:54:31;6.15;;;5.75;;
5999;SDS011;3028;49.468;7.694;2023-06-10T06:56:33;4.88;;;4.55;;
5999;SDS011;3028;49.468;7.694;2023-06-10T06:58:35;6.50;;;6.00;;
5999;SDS011;3028;49.468;7.694;2023-06-10T07:00:36;6.93;;;5.20;;
5999;SDS011;3028;49.468;7.694;2023-06-10T07:02:38;5.50;;;5.00;;
5999;SDS011;3028;49.468;7.694;2023-06-10T07:04:40;6.32;;;4.97;;
5999;SDS011;3028;49.468;7.694;2023-06-10T07:06:42;4.90;;;4.50;;
5999;SDS011;3028;49.468;7.694;2023-06-10T07:08:44;4.93;;;4.53;;
5999;SDS011;3028;49.468;7.694;2023-06-10T07:10:46;5.75;;;5.25;;
5999;SDS011;3028;49.468;7.694;2023-06-10T07:12:48;5.72;;;5.10;;
5999;SDS011;3028;49.468;7.694;2023-06-10T07:14:50;4.80;;;4.40;;
5999;SDS011;3028;49.468;7.694;2023-06-10T07:16:52;5.00;;;4.57;;
5999;SDS011;3028;49.468;7.694;2023-06-10T07:18:54;5.15;;;4.75;;
5999;SDS011;3028;49.468;7.694;2023-06-10T07:20:55;8.48;;;4.72;;
5999;SDS011;3028;49.468;7.694;2023-06-10T07:22:57;4.22;;;3.92;;
5999;SDS011;3028;49.468;7.694;2023-06-10T07:24:59;4.15;;;3.85;;
5999;SDS011;3028;49.468;7.694;2023-06-10T07:27:01;4.28;;;3.90;;
5999;SDS011;3028;49.468;7.694;2023-06-10T07:29:02;5.03;;;3.38;;
5999;SDS011;3028;49.468;7.694;2023-06-10T07:31:04;9.75;;;4.03;;
5999;SDS011;3028;49.468;7.694;2023-06-10T07:33:06;4.10;;;3.80;;
5999;SDS011;3028;49.468;7.694;2023-06-10T07:35:09;4.32;;;3.97;;
5999;SDS011;3028;49.468;7.694;2023-06-10T07:37:13;3.88;;;3.67;;
5999;SDS011;3028;49.468;7.694;2023-06-10T07:39:15;4.13;;;3.55;;
5999;SDS011;3028;49.468;7.694;2023-06-10T07:41:17;4.60;;;3.58;;
5999;SDS011;3028;49.468;7.694;2023-06-10T07:43:19;5.32;;;4.22;;
5999;SDS011;3028;49.468;7.694;2023-06-10T07:45:21;5.90;;;3.67;;
5999;SDS011;3028;49.468;7.694;2023-06-10T07:47:22;4.85;;;4.35;;
5999;SDS011;3028;49.468;7.694;2023-06-10T07:49:24;4.07;;;3.30;;
5999;SDS011;3028;49.468;7.694;2023-06-10T07:51:26;3.17;;;2.97;;
5999;SDS011;3028;49.468;7.694;2023-06-10T07:53:27;3.65;;;3.40;;
5999;SDS011;3028;49.468;7.694;2023-06-10T07:55:29;4.10;;;3.28;;
5999;SDS011;3028;49.468;7.694;2023-06-10T07:57:31;4.90;;;3.10;;
5999;SDS011;3028;49.468;7.694;2023-06-10T07:59:36;3.10;;;2.90;;
5999;SDS011;3028;49.468;7.694;2023-06-10T08:01:39;3.63;;;3.33;;
5999;SDS011;3028;49.468;7.694;2023-06-10T08:03:42;5.97;;;3.45;;
5999;SDS011;3028;49.468;7.694;2023-06-10T08:05:44;3.38;;;3.17;;
5999;SDS011;3028;49.468;7.694;2023-06-10T08:07:46;3.45;;;3.13;;
5999;SDS011;3028;49.468;7.694;2023-06-10T08:09:48;3.60;;;3.40;;
5999;SDS011;3028;49.468;7.694;2023-06-10T08:11:49;5.07;;;3.70;;
5999;SDS011;3028;49.468;7.694;2023-06-10T08:13:51;4.10;;;3.80;;
5999;SDS011;3028;49.468;7.694;2023-06-10T08:15:53;3.63;;;3.10;;
5999;SDS011;3028;49.468;7.694;2023-06-10T08:17:56;4.10;;;3.80;;
5999;SDS011;3028;49.468;7.694;2023-06-10T08:19:58;4.20;;;3.80;;
5999;SDS011;3028;49.468;7.694;2023-06-10T08:22:00;3.45;;;3.25;;
5999;SDS011;3028;49.468;7.694;2023-06-10T08:24:01;3.90;;;3.60;;
5999;SDS011;3028;49.468;7.694;2023-06-10T08:26:03;3.45;;;3.15;;
5999;SDS011;3028;49.468;7.694;2023-06-10T08:28:05;3.90;;;3.53;;
5999;SDS011;3028;49.468;7.694;2023-06-10T08:30:07;3.47;;;3.17;;
5999;SDS011;3028;49.468;7.694;2023-06-10T08:32:11;27.27;;;4.03;;
5999;SDS011;3028;49.468;7.694;2023-06-10T08:34:13;3.28;;;3.03;;
5999;SDS011;3028;49.468;7.694;2023-06-10T08:36:14;3.88;;;3.58;;
5999;SDS011;3028;49.468;7.694;2023-06-10T08:38:19;3.50;;;3.20;;
5999;SDS011;3028;49.468;7.694;2023-06-10T08:40:21;3.65;;;3.33;;
5999;SDS011;3028;49.468;7.694;2023-06-10T08:42:24;4.45;;;3.00;;
5999;SDS011;3028;49.468;7.694;2023-06-10T08:44:30;4.82;;;3.03;;
5999;SDS011;3028;49.468;7.694;2023-06-10T08:46:31;7.70;;;3.35;;
5999;SDS011;3028;49.468;7.694;2023-06-10T08:48:35;3.55;;;3.33;;
5999;SDS011;3028;49.468;7.694;2023-06-10T08:50:43;3.05;;;2.75;;
5999;SDS011;3028;49.468;7.694;2023-06-10T08:52:46;4.82;;;2.80;;
5999;SDS011;3028;49.468;7.694;2023-06-10T08:54:56;3.30;;;3.00;;
5999;SDS011;3028;49.468;7.694;2023-06-10T08:57:00;4.85;;;3.08;;
5999;SDS011;3028;49.468;7.694;2023-06-10T08:59:03;3.35;;;3.15;;
5999;SDS011;3028;49.468;7.694;2023-06-10T09:01:05;3.83;;;3.53;;
5999;SDS011;3028;49.468;7.694;2023-06-10T09:03:07;3.00;;;2.65;;
5999;SDS011;3028;49.468;7.694;2023-06-10T09:05:10;4.15;;;3.53;;
5999;SDS011;3028;49.468;7.694;2023-06-10T09:07:12;3.60;;;2.67;;
5999;SDS011;3028;49.468;7.694;2023-06-10T09:09:15;3.30;;;3.00;;
5999;SDS011;3028;49.468;7.694;2023-06-10T09:11:17;3.58;;;3.28;;
5999;SDS011;3028;49.468;7.694;2023-06-10T09:13:19;3.78;;;3.42;;
5999;SDS011;3028;49.468;7.694;2023-06-10T09:15:21;4.53;;;4.22;;
5999;SDS011;3028;49.468;7.694;2023-06-10T09:17:23;4.22;;;3.83;;
5999;SDS011;3028;49.468;7.694;2023-06-10T09:19:25;4.78;;;3.72;;
5999;SDS011;3028;49.468;7.694;2023-06-10T09:21:28;4.15;;;3.85;;
5999;SDS011;3028;49.468;7.694;2023-06-10T09:23:30;5.60;;;5.10;;
5999;SDS011;3028;49.468;7.694;2023-06-10T09:25:37;5.80;;;3.53;;
5999;SDS011;3028;49.468;7.694;2023-06-10T09:27:49;4.53;;;4.13;;
5999;SDS011;3028;49.468;7.694;2023-06-10T09:29:54;3.95;;;3.55;;
5999;SDS011;3028;49.468;7.694;2023-06-10T09:31:57;4.70;;;4.22;;
5999;SDS011;3028;49.468;7.694;2023-06-10T09:34:06;3.10;;;2.90;;
5999;SDS011;3028;49.468;7.694;2023-06-10T09:36:08;4.07;;;3.65;;
5999;SDS011;3028;49.468;7.694;2023-06-10T09:38:10;3.28;;;2.97;;
5999;SDS011;3028;49.468;7.694;2023-06-10T09:40:12;4.45;;;3.00;;
5999;SDS011;3028;49.468;7.694;2023-06-10T09:42:17;3.92;;;3.00;;
5999;SDS011;3028;49.468;7.694;2023-06-10T09:44:20;4.07;;;3.28;;
5999;SDS011;3028;49.468;7.694;2023-06-10T09:46:22;7.25;;;3.08;;
5999;SDS011;3028;49.468;7.694;2023-06-10T09:48:24;2.95;;;2.67;;
5999;SDS011;3028;49.468;7.694;2023-06-10T09:50:26;3.40;;;2.75;;
5999;SDS011;3028;49.468;7.694;2023-06-10T09:52:29;3.35;;;3.08;;
5999;SDS011;3028;49.468;7.694;2023-06-10T09:54:32;4.47;;;2.90;;
5999;SDS011;3028;49.468;7.694;2023-06-10T09:56:34;3.75;;;2.92;;
5999;SDS011;3028;49.468;7.694;2023-06-10T09:58:37;2.83;;;2.63;;
5999;SDS011;3028;49.468;7.694;2023-06-10T10:00:40;4.57;;;2.55;;
5999;SDS011;3028;49.468;7.694;2023-06-10T10:02:49;3.10;;;2.80;;
5999;SDS011;3028;49.468;7.694;2023-06-10T10:04:51;3.50;;;3.20;;
5999;SDS011;3028;49.468;7.694;2023-06-10T10:06:53;3.35;;;2.80;;
5999;SDS011;3028;49.468;7.694;2023-06-10T10:08:55;2.53;;;2.33;;
5999;SDS011;3028;49.468;7.694;2023-06-10T10:10:57;3.45;;;2.90;;
5999;SDS011;3028;49.468;7.694;2023-06-10T10:12:59;2.13;;;1.92;;
5999;SDS011;3028;49.468;7.694;2023-06-10T10:15:01;8.65;;;2.70;;
5999;SDS011;3028;49.468;7.694;2023-06-10T10:17:07;4.43;;;2.53;;
5999;SDS011;3028;49.468;7.694;2023-06-10T10:19:23;3.03;;;2.83;;
5999;SDS011;3028;49.468;7.694;2023-06-10T10:21:28;3.38;;;3.15;;
5999;SDS011;3028;49.468;7.694;2023-06-10T10:23:40;8.30;;;2.75;;
5999;SDS011;3028;49.468;7.694;2023-06-10T10:25:54;2.60;;;2.40;;
5999;SDS011;3028;49.468;7.694;2023-06-10T10:27:58;3.72;;;3.05;;
5999;SDS011;3028;49.468;7.694;2023-06-10T10:30:03;2.95;;;2.75;;
5999;SDS011;3028;49.468;7.694;2023-06-10T10:32:10;2.53;;;2.42;;
5999;SDS011;3028;49.468;7.694;2023-06-10T10:34:15;3.42;;;2.15;;
5999;SDS011;3028;49.468;7.694;2023-06-10T10:36:20;4.22;;;2.60;;
5999;SDS011;3028;49.468;7.694;2023-06-10T10:38:22;2.65;;;2.45;;
5999;SDS011;3028;49.468;7.694;2023-06-10T10:40:25;3.35;;;2.47;;
5999;SDS011;3028;49.468;7.694;2023-06-10T10:42:27;2.70;;;2.50;;
5999;SDS011;3028;49.468;7.694;2023-06-10T10:44:30;4.07;;;3.15;;
5999;SDS011;3028;49.468;7.694;2023-06-10T10:46:34;3.85;;;3.55;;
5999;SDS011;3028;49.468;7.694;2023-06-10T10:48:44;3.15;;;2.85;;
5999;SDS011;3028;49.468;7.694;2023-06-10T10:50:55;3.90;;;2.95;;
5999;SDS011;3028;49.468;7.694;2023-06-10T10:52:58;4.43;;;2.67;;
5999;SDS011;3028;49.468;7.694;2023-06-10T10:55:01;3.78;;;2.58;;
5999;SDS011;3028;49.468;7.694;2023-06-10T10:57:14;2.45;;;2.25;;
5999;SDS011;3028;49.468;7.694;2023-06-10T10:59:18;3.00;;;2.13;;
5999;SDS011;3028;49.468;7.694;2023-06-10T11:01:21;6.80;;;4.00;;
5999;SDS011;3028;49.468;7.694;2023-06-10T11:03:24;3.28;;;2.95;;
5999;SDS011;3028;49.468;7.694;2023-06-10T11:05:31;3.15;;;2.92;;
5999;SDS011;3028;49.468;7.694;2023-06-10T11:07:40;3.25;;;3.05;;
5999;SDS011;3028;49.468;7.694;2023-06-10T11:09:58;3.15;;;2.85;;
5999;SDS011;3028;49.468;7.694;2023-06-10T11:12:01;3.67;;;2.97;;
5999;SDS011;3028;49.468;7.694;2023-06-10T11:16:08;4.53;;;3.17;;
5999;SDS011;3028;49.468;7.694;2023-06-10T11:22:59;2.97;;;2.78;;
5999;SDS011;3028;49.468;7.694;2023-06-10T11:25:03;7.85;;;3.22;;
5999;SDS011;3028;49.468;7.694;2023-06-10T11:27:18;3.50;;;3.20;;
5999;SDS011;3028;49.468;7.694;2023-06-10T11:29:27;3.08;;;2.88;;
5999;SDS011;3028;49.468;7.694;2023-06-10T11:33:37;13.07;;;3.10;;
5999;SDS011;3028;49.468;7.694;2023-06-10T11:35:39;2.97;;;2.67;;
5999;SDS011;3028;49.468;7.694;2023-06-10T11:37:41;3.65;;;3.35;;
5999;SDS011;3028;49.468;7.694;2023-06-10T11:39:43;6.75;;;3.58;;
5999;SDS011;3028;49.468;7.694;2023-06-10T11:41:45;3.63;;;3.40;;
5999;SDS011;3028;49.468;7.694;2023-06-10T11:43:47;3.03;;;2.83;;
5999;SDS011;3028;49.468;7.694;2023-06-10T11:45:53;3.25;;;2.95;;
5999;SDS011;3028;49.468;7.694;2023-06-10T11:47:56;5.13;;;2.58;;
5999;SDS011;3028;49.468;7.694;2023-06-10T11:50:01;3.53;;;2.72;;
5999;SDS011;3028;49.468;7.694;2023-06-10T11:52:04;2.83;;;2.63;;
5999;SDS011;3028;49.468;7.694;2023-06-10T11:54:08;2.38;;;2.17;;
5999;SDS011;3028;49.468;7.694;2023-06-10T11:56:10;3.03;;;2.83;;
5999;SDS011;3028;49.468;7.694;2023-06-10T11:58:21;3.63;;;3.33;;
5999;SDS011;3028;49.468;7.694;2023-06-10T12:00:23;5.22;;;2.83;;
5999;SDS011;3028;49.468;7.694;2023-06-10T12:02:26;3.38;;;3.08;;
5999;SDS011;3028;49.468;7.694;2023-06-10T12:04:27;3.20;;;2.92;;
5999;SDS011;3028;49.468;7.694;2023-06-10T12:08:51;5.38;;;3.15;;
5999;SDS011;3028;49.468;7.694;2023-06-10T12:10:52;3.28;;;3.08;;
5999;SDS011;3028;49.468;7.694;2023-06-10T12:12:55;3.17;;;2.88;;
5999;SDS011;3028;49.468;7.694;2023-06-10T12:14:57;5.35;;;3.53;;
5999;SDS011;3028;49.468;7.694;2023-06-10T12:17:00;3.55;;;3.25;;
5999;SDS011;3028;49.468;7.694;2023-06-10T12:19:02;4.30;;;3.35;;
5999;SDS011;3028;49.468;7.694;2023-06-10T12:21:15;3.58;;;3.38;;
5999;SDS011;3028;49.468;7.694;2023-06-10T12:23:18;3.53;;;3.20;;
5999;SDS011;3028;49.468;7.694;2023-06-10T12:25:24;3.22;;;2.92;;
5999;SDS011;3028;49.468;7.694;2023-06-10T12:27:28;4.13;;;3.83;;
5999;SDS011;3028;49.468;7.694;2023-06-10T12:29:31;3.67;;;3.40;;
5999;SDS011;3028;49.468;7.694;2023-06-10T12:31:32;4.20;;;3.10;;
5999;SDS011;3028;49.468;7.694;2023-06-10T12:33:34;3.70;;;3.10;;
5999;SDS011;3028;49.468;7.694;2023-06-10T12:35:36;4.70;;;2.97;;
5999;SDS011;3028;49.468;7.694;2023-06-10T12:37:58;3.10;;;2.88;;
5999;SDS011;3028;49.468;7.694;2023-06-10T12:40:02;3.35;;;3.05;;
5999;SDS011;3028;49.468;7.694;2023-06-10T12:42:08;3.67;;;3.03;;
5999;SDS011;3028;49.468;7.694;2023-06-10T12:44:11;3.97;;;2.97;;
5999;SDS011;3028;49.468;7.694;2023-06-10T12:46:12;2.97;;;2.78;;
5999;SDS011;3028;49.468;7.694;2023-06-10T12:48:18;3.90;;;3.60;;
5999;SDS011;3028;49.468;7.694;2023-06-10T12:50:22;3.03;;;2.72;;
5999;SDS011;3028;49.468;7.694;2023-06-10T12:52:24;3.03;;;2.83;;
5999;SDS011;3028;49.468;7.694;2023-06-10T12:54:26;3.40;;;3.10;;
5999;SDS011;3028;49.468;7.694;2023-06-10T12:56:27;4.55;;;2.97;;